createdAt,value
2023-04-23T00:00:49.189Z,68.15
2023-04-23T00:03:36.774Z,67.98
2023-04-23T00:06:23.544Z,68.25
2023-04-23T00:09:09.922Z,67.41
2023-04-23T00:11:55.516Z,67.39
2023-04-23T00:14:41.565Z,67.81
2023-04-23T00:17:27.805Z,67.75
2023-04-23T00:20:13.256Z,67.69
2023-04-23T00:22:58.564Z,67.83
2023-04-23T00:25:43.930Z,68.41
2023-04-23T00:28:29.229Z,68.47
2023-04-23T00:31:14.736Z,68.13
2023-04-23T00:34:00.121Z,68.44
2023-04-23T00:36:45.657Z,68.61
2023-04-23T00:39:31.177Z,67.98
2023-04-23T00:42:17.305Z,68.26
2023-04-23T00:45:02.759Z,68.61
2023-04-23T00:47:48.517Z,68.73
2023-04-23T00:50:33.630Z,68.32
2023-04-23T00:53:19.715Z,68.50
2023-04-23T00:56:05.970Z,69.14
2023-04-23T00:58:52.700Z,69.11
2023-04-23T01:01:38.609Z,68.78
2023-04-23T01:04:27.708Z,69.45
2023-04-23T01:07:13.426Z,69.50
2023-04-23T01:09:59.215Z,68.90
2023-04-23T01:12:44.793Z,69.18
2023-04-23T01:15:30.493Z,69.23
2023-04-23T01:18:15.832Z,70.00
2023-04-23T01:21:01.910Z,69.71
2023-04-23T01:23:47.406Z,70.02
2023-04-23T01:26:33.621Z,70.38
2023-04-23T01:29:20.057Z,69.48
2023-04-23T01:32:07.341Z,69.71
2023-04-23T01:34:56.970Z,70.11
2023-04-23T01:37:44.797Z,69.78
2023-04-23T01:40:31.021Z,70.21
2023-04-23T01:43:17.690Z,70.68
2023-04-23T01:46:03.428Z,70.46
2023-04-23T01:48:49.386Z,70.88
2023-04-23T01:51:35.688Z,70.78
2023-04-23T01:54:21.317Z,71.16
2023-04-23T01:57:10.294Z,70.99
2023-04-23T02:00:11.376Z,71.46
2023-04-23T02:03:00.073Z,70.82
2023-04-23T02:05:45.877Z,71.22
2023-04-23T02:08:31.857Z,71.64
2023-04-23T02:11:17.297Z,71.64
2023-04-23T02:14:04.116Z,71.59
2023-04-23T02:16:49.810Z,70.98
2023-04-23T02:19:36.525Z,71.74
2023-04-23T02:22:25.252Z,71.43
2023-04-23T02:25:11.228Z,71.92
2023-04-23T02:27:57.705Z,71.62
2023-04-23T02:30:46.142Z,72.03
2023-04-23T02:33:31.548Z,71.90
2023-04-23T02:36:17.967Z,72.49
2023-04-23T02:39:04.086Z,72.32
2023-04-23T02:41:49.544Z,71.86
2023-04-23T02:44:34.955Z,72.04
2023-04-23T02:47:20.273Z,72.25
2023-04-23T02:50:06.749Z,71.88
2023-04-23T02:52:52.454Z,72.18
2023-04-23T02:55:37.796Z,72.06
2023-04-23T02:58:23.210Z,72.18
2023-04-23T03:01:10.934Z,74.03
2023-04-23T03:03:56.897Z,73.43
2023-04-23T03:06:42.833Z,73.47
2023-04-23T03:09:28.244Z,73.32
2023-04-23T03:12:13.522Z,72.85
2023-04-23T03:14:59.203Z,73.19
2023-04-23T03:17:46.725Z,72.98
2023-04-23T03:20:32.708Z,73.39
2023-04-23T03:23:18.136Z,73.21
2023-04-23T03:26:05.144Z,73.01
2023-04-23T03:28:50.988Z,73.69
2023-04-23T03:31:37.039Z,73.61
2023-04-23T03:34:23.439Z,73.40
2023-04-23T03:37:09.491Z,73.17
2023-04-23T03:39:56.810Z,74.30
2023-04-23T03:42:42.715Z,73.16
2023-04-23T03:45:31.311Z,73.86
2023-04-23T03:48:17.699Z,73.60
2023-04-23T03:51:03.596Z,73.72
2023-04-23T03:53:55.032Z,74.09
2023-04-23T03:56:54.871Z,73.89
2023-04-23T03:59:45.496Z,73.58
2023-04-23T04:02:31.039Z,73.93
2023-04-23T04:05:17.180Z,73.40
2023-04-23T04:08:05.201Z,74.11
2023-04-23T04:10:50.428Z,73.78
2023-04-23T04:13:35.872Z,74.07
2023-04-23T04:16:21.255Z,73.91
2023-04-23T04:19:07.377Z,74.55
2023-04-23T04:21:53.300Z,73.77
2023-04-23T04:24:38.764Z,74.91
2023-04-23T04:27:24.432Z,73.85
2023-04-23T04:30:10.130Z,74.00
2023-04-23T04:32:56.034Z,74.89
2023-04-23T04:35:42.854Z,74.25
2023-04-23T04:38:29.870Z,74.63
2023-04-23T04:41:15.467Z,74.99
2023-04-23T04:44:00.921Z,74.90
2023-04-23T04:46:46.334Z,74.20
2023-04-23T04:49:32.295Z,74.17
2023-04-23T04:52:17.776Z,74.49
2023-04-23T04:55:03.482Z,74.09
2023-04-23T04:57:48.948Z,73.86
2023-04-23T05:00:34.534Z,74.37
2023-04-23T05:03:20.346Z,73.91
2023-04-23T05:06:06.235Z,73.78
2023-04-23T05:08:51.940Z,73.90
2023-04-23T05:11:37.630Z,74.23
2023-04-23T05:14:23.235Z,73.83
2023-04-23T05:17:08.686Z,74.13
2023-04-23T05:19:54.282Z,74.07
2023-04-23T05:22:41.747Z,74.04
2023-04-23T05:25:27.488Z,74.01
2023-04-23T05:28:13.266Z,74.40
2023-04-23T05:30:59.170Z,74.53
2023-04-23T05:33:50.443Z,74.30
2023-04-23T05:36:36.737Z,73.97
2023-04-23T05:39:22.372Z,73.71
2023-04-23T05:42:08.173Z,73.91
2023-04-23T05:44:53.531Z,73.85
2023-04-23T05:47:38.990Z,73.05
2023-04-23T05:50:24.602Z,72.52
2023-04-23T05:53:10.163Z,70.87
2023-04-23T05:55:56.104Z,70.28
2023-04-23T05:58:42.250Z,70.64
2023-04-23T06:01:28.762Z,69.29
2023-04-23T06:04:14.788Z,69.29
2023-04-23T06:07:00.568Z,67.98
2023-04-23T06:09:46.103Z,68.34
2023-04-23T06:12:32.328Z,67.48
2023-04-23T06:15:17.797Z,67.48
2023-04-23T06:18:03.340Z,67.05
2023-04-23T06:20:51.412Z,67.44
2023-04-23T06:23:37.095Z,66.72
2023-04-23T06:26:22.788Z,67.04
2023-04-23T06:29:10.335Z,66.86
2023-04-23T06:32:13.364Z,66.28
2023-04-23T06:35:01.982Z,65.71
2023-04-23T06:37:48.038Z,65.78
2023-04-23T06:40:33.782Z,65.44
2023-04-23T06:43:19.403Z,65.62
2023-04-23T06:46:23.769Z,65.25
2023-04-23T06:49:08.995Z,65.45
2023-04-23T06:51:55.794Z,64.93
2023-04-23T06:54:43.832Z,65.04
2023-04-23T06:57:29.760Z,64.49
2023-04-23T07:00:15.430Z,64.20
2023-04-23T07:03:01.667Z,63.82
2023-04-23T07:05:46.846Z,63.71
2023-04-23T07:08:32.429Z,63.86
2023-04-23T07:11:18.205Z,63.72
2023-04-23T07:14:04.115Z,63.31
2023-04-23T07:16:49.911Z,63.88
2023-04-23T07:19:35.742Z,64.07
2023-04-23T07:22:21.490Z,63.79
2023-04-23T07:25:08.781Z,63.02
2023-04-23T07:27:54.366Z,63.40
2023-04-23T07:30:40.209Z,62.52
2023-04-23T07:33:26.205Z,63.01
2023-04-23T07:36:13.596Z,62.91
2023-04-23T07:38:59.194Z,63.18
2023-04-23T07:41:44.752Z,62.87
2023-04-23T07:44:30.123Z,63.13
2023-04-23T07:47:15.331Z,62.91
2023-04-23T07:50:01.203Z,62.71
2023-04-23T07:52:46.952Z,62.49
2023-04-23T07:55:32.027Z,63.30
2023-04-23T07:58:17.495Z,62.48
2023-04-23T08:01:02.853Z,62.57
2023-04-23T08:03:48.837Z,62.65
2023-04-23T08:06:35.591Z,62.82
2023-04-23T08:09:21.006Z,62.28
2023-04-23T08:12:06.449Z,62.56
2023-04-23T08:14:51.704Z,62.44
2023-04-23T08:17:40.689Z,62.72
2023-04-23T08:20:27.168Z,62.61
2023-04-23T08:23:12.651Z,62.71
2023-04-23T08:25:58.123Z,62.54
2023-04-23T08:28:43.688Z,62.78
2023-04-23T08:31:29.493Z,62.82
2023-04-23T08:34:15.465Z,62.97
2023-04-23T08:37:01.152Z,62.92
2023-04-23T08:39:46.662Z,62.80
2023-04-23T08:42:58.152Z,63.44
2023-04-23T08:45:47.640Z,63.04
2023-04-23T08:48:34.710Z,63.34
2023-04-23T08:51:23.933Z,63.02
2023-04-23T08:54:18.765Z,62.48
2023-04-23T08:57:04.427Z,62.95
2023-04-23T08:59:51.322Z,63.21
2023-04-23T09:02:41.179Z,62.89
2023-04-23T09:05:27.354Z,62.64
2023-04-23T09:08:12.687Z,62.51
2023-04-23T09:11:01.355Z,62.49
2023-04-23T09:13:47.029Z,62.49
2023-04-23T09:16:32.702Z,62.28
2023-04-23T09:19:18.938Z,62.53
2023-04-23T09:22:04.685Z,62.08
2023-04-23T09:24:50.657Z,62.37
2023-04-23T09:27:39.020Z,61.94
2023-04-23T09:30:26.470Z,62.41
2023-04-23T09:33:13.119Z,62.08
2023-04-23T09:35:58.746Z,62.18
2023-04-23T09:38:44.213Z,61.84
2023-04-23T09:41:31.231Z,62.02
2023-04-23T09:44:22.763Z,62.52
2023-04-23T09:47:09.864Z,62.31
2023-04-23T09:49:57.063Z,62.61
2023-04-23T09:52:42.513Z,61.91
2023-04-23T09:55:39.446Z,62.01
2023-04-23T09:58:27.557Z,62.43
2023-04-23T10:01:15.471Z,62.20
2023-04-23T10:04:01.422Z,62.61
2023-04-23T10:06:57.954Z,62.26
2023-04-23T10:09:54.304Z,62.90
2023-04-23T10:12:53.733Z,62.40
2023-04-23T10:15:40.816Z,62.63
2023-04-23T10:18:26.405Z,62.50
2023-04-23T10:21:13.989Z,62.94
2023-04-23T10:24:02.680Z,62.74
2023-04-23T10:26:48.399Z,62.41
2023-04-23T10:29:36.119Z,63.03
2023-04-23T10:32:21.598Z,63.24
2023-04-23T10:35:08.818Z,62.86
2023-04-23T10:37:54.809Z,63.32
2023-04-23T10:40:45.354Z,63.53
2023-04-23T10:43:31.086Z,62.76
2023-04-23T10:46:30.768Z,63.07
2023-04-23T10:49:16.691Z,62.71
2023-04-23T10:52:19.588Z,63.17
2023-04-23T10:55:16.270Z,63.26
2023-04-23T10:58:07.482Z,63.10
2023-04-23T11:00:53.669Z,62.85
2023-04-23T11:03:44.211Z,63.03
2023-04-23T11:06:48.488Z,62.48
2023-04-23T11:09:43.049Z,62.31
2023-04-23T11:12:29.907Z,62.27
2023-04-23T11:15:18.996Z,62.72
2023-04-23T11:18:05.111Z,62.29
2023-04-23T11:20:51.427Z,62.69
2023-04-23T11:23:37.032Z,62.50
2023-04-23T11:26:27.973Z,63.36
2023-04-23T11:29:15.748Z,63.50
2023-04-23T11:32:03.952Z,63.21
2023-04-23T11:34:50.614Z,62.88
2023-04-23T11:37:43.356Z,63.21
2023-04-23T11:40:31.034Z,63.18
2023-04-23T11:43:21.167Z,63.52
2023-04-23T11:46:06.867Z,63.17
2023-04-23T11:48:52.410Z,63.54
2023-04-23T11:51:43.730Z,63.59
2023-04-23T11:54:29.698Z,64.13
2023-04-23T11:57:15.074Z,65.00
2023-04-23T12:00:00.562Z,64.72
2023-04-23T12:02:56.909Z,65.11
2023-04-23T12:05:44.824Z,65.15
2023-04-23T12:08:32.912Z,66.15
2023-04-23T12:11:18.292Z,65.62
2023-04-23T12:14:04.104Z,66.07
2023-04-23T12:16:52.853Z,66.03
2023-04-23T12:19:40.532Z,66.46
2023-04-23T12:22:29.443Z,66.12
2023-04-23T12:25:14.971Z,66.84
2023-04-23T12:28:00.783Z,66.97
2023-04-23T12:30:46.369Z,67.01
2023-04-23T12:33:32.050Z,67.19
2023-04-23T12:36:17.452Z,67.52
2023-04-23T12:39:29.692Z,67.46
2023-04-23T12:42:15.422Z,67.61
2023-04-23T12:45:09.261Z,67.70
2023-04-23T12:47:54.875Z,68.43
2023-04-23T12:50:41.255Z,67.99
2023-04-23T12:53:26.600Z,68.68
2023-04-23T12:56:12.262Z,67.95
2023-04-23T12:58:57.737Z,68.42
2023-04-23T13:01:43.740Z,68.68
2023-04-23T13:04:30.656Z,69.08
2023-04-23T13:07:16.062Z,68.99
2023-04-23T13:10:01.737Z,69.42
2023-04-23T13:12:47.089Z,69.33
2023-04-23T13:15:32.491Z,68.94
2023-04-23T13:18:17.938Z,68.33
2023-04-23T13:21:03.268Z,68.62
2023-04-23T13:23:49.697Z,68.02
2023-04-23T13:26:37.153Z,67.93
2023-04-23T13:29:23.784Z,68.07
2023-04-23T13:32:09.332Z,67.76
2023-04-23T13:34:55.066Z,69.12
2023-04-23T13:37:41.500Z,68.44
2023-04-23T13:40:26.911Z,68.85
2023-04-23T13:43:12.312Z,68.67
2023-04-23T13:45:58.048Z,67.69
2023-04-23T13:48:43.588Z,68.03
2023-04-23T13:51:35.148Z,67.54
2023-04-23T13:54:21.431Z,67.38
2023-04-23T13:57:07.106Z,66.92
2023-04-23T13:59:55.200Z,66.30
2023-04-23T14:02:41.001Z,66.45
2023-04-23T14:05:26.602Z,66.14
2023-04-23T14:08:13.111Z,65.59
2023-04-23T14:10:58.665Z,64.30
2023-04-23T14:13:44.104Z,63.51
2023-04-23T14:16:29.673Z,62.53
2023-04-23T14:19:15.493Z,62.07
2023-04-23T14:22:00.788Z,61.64
2023-04-23T14:24:50.614Z,61.10
2023-04-23T14:27:49.947Z,59.63
2023-04-23T14:30:35.716Z,59.53
2023-04-23T14:33:21.549Z,58.49
2023-04-23T14:36:07.312Z,58.34
2023-04-23T14:38:53.071Z,57.57
2023-04-23T14:41:40.184Z,56.75
2023-04-23T14:44:29.007Z,51.52
2023-04-23T14:47:14.945Z,54.83
2023-04-23T14:50:01.259Z,54.39
2023-04-23T14:52:50.282Z,52.68
2023-04-23T14:55:35.465Z,52.58
2023-04-23T14:58:21.006Z,51.47
2023-04-23T15:01:07.510Z,50.71
2023-04-23T15:03:53.881Z,49.28
2023-04-23T15:06:40.517Z,48.60
2023-04-23T15:09:25.978Z,47.53
2023-04-23T15:12:40.300Z,44.53
2023-04-23T15:15:42.954Z,48.65
2023-04-23T15:18:29.871Z,49.22
2023-04-23T15:21:15.334Z,49.82
2023-04-23T15:24:00.649Z,49.80
2023-04-23T15:26:46.283Z,50.35
2023-04-23T15:29:32.179Z,50.34
2023-04-23T15:32:17.906Z,50.88
2023-04-23T15:35:04.365Z,51.66
2023-04-23T15:37:50.189Z,52.01
2023-04-23T15:40:42.112Z,52.30
2023-04-23T15:43:27.704Z,52.57
2023-04-23T15:46:13.682Z,53.00
2023-04-23T15:49:00.217Z,52.66
2023-04-23T15:51:45.544Z,52.30
2023-04-23T15:54:31.054Z,52.86
2023-04-23T15:57:16.348Z,53.29
2023-04-23T16:00:01.723Z,53.50
2023-04-23T16:02:58.827Z,53.89
2023-04-23T16:05:45.064Z,52.26
2023-04-23T16:08:30.682Z,53.63
2023-04-23T16:11:15.854Z,53.46
2023-04-23T16:14:02.024Z,53.64
2023-04-23T16:16:48.128Z,53.97
2023-04-23T16:19:33.708Z,54.09
2023-04-23T16:22:19.415Z,54.55
2023-04-23T16:25:05.897Z,54.69
2023-04-23T16:27:51.498Z,54.45
2023-04-23T16:30:36.916Z,54.92
2023-04-23T16:33:23.923Z,54.95
2023-04-23T16:36:13.146Z,54.93
2023-04-23T16:38:59.419Z,54.64
2023-04-23T16:41:44.903Z,55.09
2023-04-23T16:44:30.789Z,55.47
2023-04-23T16:47:16.311Z,55.44
2023-04-23T16:50:02.443Z,55.88
2023-04-23T16:52:47.904Z,56.25
2023-04-23T16:55:33.319Z,56.12
2023-04-23T16:58:18.893Z,56.22
2023-04-23T17:01:04.432Z,56.58
2023-04-23T17:03:50.077Z,56.67
2023-04-23T17:06:36.185Z,56.63
2023-04-23T17:09:21.699Z,56.88
2023-04-23T17:12:07.095Z,57.06
2023-04-23T17:14:52.501Z,56.93
2023-04-23T17:17:38.617Z,57.15
2023-04-23T17:20:24.113Z,57.24
2023-04-23T17:23:09.711Z,57.41
2023-04-23T17:25:55.192Z,57.46
2023-04-23T17:28:40.880Z,57.52
2023-04-23T17:31:26.665Z,57.70
2023-04-23T17:34:12.038Z,57.55
2023-04-23T17:36:57.578Z,57.68
2023-04-23T17:39:43.016Z,58.01
2023-04-23T17:42:28.375Z,57.83
2023-04-23T17:45:13.837Z,58.20
2023-04-23T17:47:59.163Z,58.45
2023-04-23T17:50:47.025Z,58.45
2023-04-23T17:53:32.952Z,58.64
2023-04-23T17:56:18.160Z,58.68
2023-04-23T17:59:03.960Z,58.96
2023-04-23T18:01:49.595Z,59.04
2023-04-23T18:04:36.106Z,58.94
2023-04-23T18:07:21.552Z,59.01
2023-04-23T18:10:08.032Z,59.51
2023-04-23T18:12:53.311Z,59.64
2023-04-23T18:15:40.966Z,60.07
2023-04-23T18:18:26.856Z,60.81
2023-04-23T18:21:14.774Z,59.94
2023-04-23T18:24:00.632Z,59.85
2023-04-23T18:26:48.533Z,60.47
2023-04-23T18:29:34.161Z,60.50
2023-04-23T18:32:31.435Z,60.53
2023-04-23T18:35:19.890Z,60.63
2023-04-23T18:38:10.546Z,61.41
2023-04-23T18:40:59.149Z,61.42
2023-04-23T18:43:45.080Z,61.54
2023-04-23T18:46:31.496Z,61.53
2023-04-23T18:49:29.183Z,62.00
2023-04-23T18:52:14.921Z,62.78
2023-04-23T18:55:00.427Z,62.44
2023-04-23T18:57:45.672Z,62.76
2023-04-23T19:00:31.477Z,62.96
2023-04-23T19:03:25.806Z,63.50
2023-04-23T19:06:12.691Z,63.66
2023-04-23T19:08:58.420Z,63.64
2023-04-23T19:11:45.104Z,63.95
2023-04-23T19:14:30.639Z,64.09
2023-04-23T19:17:18.490Z,64.47
2023-04-23T19:20:04.218Z,64.16
2023-04-23T19:22:49.988Z,64.26
2023-04-23T19:25:36.345Z,64.80
2023-04-23T19:28:22.215Z,64.70
2023-04-23T19:31:07.950Z,65.04
2023-04-23T19:33:53.192Z,65.40
2023-04-23T19:36:38.907Z,65.59
2023-04-23T19:39:26.639Z,65.94
2023-04-23T19:42:12.643Z,66.03
2023-04-23T19:44:58.043Z,65.84
2023-04-23T19:47:43.626Z,66.66
2023-04-23T19:50:29.724Z,66.74
2023-04-23T19:53:15.265Z,66.35
2023-04-23T19:56:00.819Z,66.60
2023-04-23T19:58:46.544Z,67.61
2023-04-23T20:01:32.462Z,67.89
2023-04-23T20:04:18.271Z,66.93
2023-04-23T20:07:04.106Z,67.80
2023-04-23T20:09:49.404Z,67.91
2023-04-23T20:12:35.057Z,68.00
2023-04-23T20:15:24.319Z,67.61
2023-04-23T20:18:10.957Z,67.75
2023-04-23T20:20:57.484Z,68.36
2023-04-23T20:23:42.866Z,68.37
2023-04-23T20:26:28.225Z,68.25
2023-04-23T20:29:13.630Z,68.07
2023-04-23T20:31:59.251Z,68.30
2023-04-23T20:34:44.515Z,68.76
2023-04-23T20:37:30.274Z,69.43
2023-04-23T20:40:16.070Z,69.04
2023-04-23T20:43:01.881Z,68.96
2023-04-23T20:45:47.598Z,69.04
2023-04-23T20:48:33.864Z,69.43
2023-04-23T20:51:23.429Z,70.01
2023-04-23T20:54:08.791Z,69.63
2023-04-23T20:56:54.249Z,70.24
2023-04-23T20:59:40.374Z,70.15
2023-04-23T21:02:26.253Z,70.35
2023-04-23T21:05:12.473Z,70.18
2023-04-23T21:07:58.196Z,70.11
2023-04-23T21:10:44.665Z,70.52
2023-04-23T21:13:30.350Z,69.98
2023-04-23T21:16:16.275Z,70.57
2023-04-23T21:19:02.412Z,70.48
2023-04-23T21:21:47.982Z,71.18
2023-04-23T21:24:33.378Z,70.49
2023-04-23T21:27:21.804Z,70.95
2023-04-23T21:30:17.131Z,70.52
2023-04-23T21:33:02.602Z,70.48
2023-04-23T21:35:50.767Z,70.96
2023-04-23T21:38:36.501Z,71.04
2023-04-23T21:41:21.890Z,71.62
2023-04-23T21:44:08.526Z,71.17
2023-04-23T21:46:54.522Z,71.86
2023-04-23T21:49:41.246Z,70.91
2023-04-23T21:52:27.187Z,72.28
2023-04-23T21:55:13.714Z,71.14
2023-04-23T21:58:15.885Z,70.49
2023-04-23T22:01:03.117Z,70.46
2023-04-23T22:03:50.420Z,70.07
2023-04-23T22:06:36.153Z,70.28
2023-04-23T22:09:23.206Z,70.24
2023-04-23T22:12:09.552Z,70.12
2023-04-23T22:14:55.100Z,71.86
2023-04-23T22:17:42.422Z,71.30
2023-04-23T22:20:30.582Z,70.96
2023-04-23T22:23:16.204Z,72.22
2023-04-23T22:26:01.656Z,72.92
2023-04-23T22:28:47.678Z,74.35
2023-04-23T22:31:32.994Z,75.41
2023-04-23T22:34:19.745Z,76.84
2023-04-23T22:37:05.595Z,76.83
2023-04-23T22:39:51.365Z,75.09
2023-04-23T22:42:37.783Z,75.01
2023-04-23T22:45:23.290Z,74.86
2023-04-23T22:48:08.734Z,74.87
2023-04-23T22:50:54.214Z,75.74
2023-04-23T22:53:40.445Z,75.73
2023-04-23T22:56:25.810Z,76.47
2023-04-23T22:59:13.541Z,77.03
2023-04-23T23:01:59.045Z,76.56
2023-04-23T23:04:44.988Z,76.59
2023-04-23T23:07:30.743Z,76.87
2023-04-23T23:10:16.786Z,76.58
2023-04-23T23:13:02.606Z,77.00
2023-04-23T23:15:48.089Z,78.07
2023-04-23T23:18:33.685Z,77.69
2023-04-23T23:21:20.834Z,78.79
2023-04-23T23:24:06.409Z,78.62
2023-04-23T23:26:51.905Z,78.70
2023-04-23T23:29:37.398Z,78.87
2023-04-23T23:32:22.872Z,80.09
2023-04-23T23:35:09.418Z,80.10
2023-04-23T23:37:54.965Z,80.51
2023-04-23T23:40:40.657Z,81.61
2023-04-23T23:43:26.467Z,82.07
2023-04-23T23:46:12.122Z,82.17
2023-04-23T23:48:57.457Z,82.71
2023-04-23T23:51:42.980Z,82.93
2023-04-23T23:54:28.830Z,83.60
2023-04-23T23:57:14.293Z,83.45
2023-04-23T23:59:59.957Z,83.37
